Columbia, Missouri
Current Conditions -  °F | °C
As of 6:54 AM on Friday 28 Nov 2014 (Local Time) from KCOU Reporting Station
Clear Clear  
Wind Chill: 20°   Ceiling: Unl
Heat Index: 29°   Visibility: 10mi
Dew Point: 23°   Wind: 9mph
Humidity: 78%   Direction: 140°SE
Pressure: 30.13"   Gusts: NA
Location:  38.95°N, 92.33°W
Report Text: KCOU 281254Z 14008KT 10SM CLR M02/M05 A3013 RMK AO2 SLP212 T10171050
Loading
Personal Weather Stations






























Interactive Weather Map New forecast layout! Learn more

10-Day Weather Forecast

Advertisements
Track Severe Weather on mobile